createdAt,value
2018-06-08T00:01:58.710Z,31.20
2018-06-08T00:04:27.271Z,37.07
2018-06-08T00:06:55.783Z,39.13
2018-06-08T00:09:24.018Z,38.93
2018-06-08T00:11:52.714Z,32.87
2018-06-08T00:14:21.322Z,36.70
2018-06-08T00:16:49.960Z,39.87
2018-06-08T00:19:19.182Z,44.10
2018-06-08T00:21:47.841Z,41.00
2018-06-08T00:24:16.303Z,40.40
2018-06-08T00:26:44.824Z,38.87
2018-06-08T00:29:13.318Z,31.20
2018-06-08T00:31:41.608Z,41.27
2018-06-08T00:34:10.488Z,38.77
2018-06-08T00:36:39.308Z,40.23
2018-06-08T00:39:09.026Z,35.97
2018-06-08T00:41:37.882Z,40.50
2018-06-08T00:44:06.396Z,38.17
2018-06-08T00:46:35.110Z,36.47
2018-06-08T00:49:03.640Z,38.60
2018-06-08T00:51:32.457Z,32.93
2018-06-08T00:54:01.154Z,38.00
2018-06-08T00:56:40.952Z,35.67
2018-06-08T00:59:09.489Z,35.13
2018-06-08T01:01:38.145Z,31.63
2018-06-08T01:04:06.680Z,32.63
2018-06-08T01:06:35.236Z,26.37
2018-06-08T01:09:04.018Z,33.63
2018-06-08T01:11:33.177Z,35.50
2018-06-08T01:14:01.846Z,31.53
2018-06-08T01:16:30.341Z,34.90
2018-06-08T01:18:59.100Z,32.63
2018-06-08T01:21:27.749Z,35.47
2018-06-08T01:23:56.411Z,34.97
2018-06-08T01:26:24.968Z,34.87
2018-06-08T01:28:53.494Z,35.07
2018-06-08T01:31:22.130Z,31.23
2018-06-08T01:33:50.919Z,30.43
2018-06-08T01:36:19.463Z,29.40
2018-06-08T01:38:47.757Z,27.57
2018-06-08T01:41:16.507Z,31.90
2018-06-08T01:43:45.063Z,29.93
2018-06-08T01:46:13.861Z,30.97
2018-06-08T01:48:42.603Z,35.87
2018-06-08T01:51:11.431Z,35.00
2018-06-08T01:53:40.198Z,34.67
2018-06-08T01:56:08.754Z,31.40
2018-06-08T01:58:37.276Z,31.17
2018-06-08T02:01:05.894Z,28.93
2018-06-08T02:03:34.473Z,29.47
2018-06-08T02:06:03.008Z,27.83
2018-06-08T02:08:31.824Z,29.60
2018-06-08T02:11:00.474Z,30.27
2018-06-08T02:13:28.966Z,26.97
2018-06-08T02:15:57.827Z,30.83
2018-06-08T02:18:26.540Z,31.87
2018-06-08T02:20:55.306Z,27.10
2018-06-08T02:23:23.869Z,25.70
2018-06-08T02:25:52.088Z,30.53
2018-06-08T02:28:20.612Z,32.80
2018-06-08T02:30:49.238Z,35.93
2018-06-08T02:33:17.785Z,32.97
2018-06-08T02:35:46.410Z,34.50
2018-06-08T02:38:15.073Z,37.37
2018-06-08T02:40:43.906Z,32.17
2018-06-08T02:43:12.412Z,34.60
2018-06-08T02:45:40.822Z,36.97
2018-06-08T02:48:09.576Z,34.27
2018-06-08T02:50:38.158Z,28.40
2018-06-08T02:53:06.352Z,33.43
2018-06-08T02:55:34.902Z,29.10
2018-06-08T02:58:03.445Z,31.87
2018-06-08T03:00:32.617Z,29.87
2018-06-08T03:03:01.192Z,29.60
2018-06-08T03:05:30.138Z,29.67
2018-06-08T03:07:58.630Z,29.30
2018-06-08T03:10:27.145Z,30.67
2018-06-08T03:12:55.898Z,31.07
2018-06-08T03:15:24.450Z,31.17
2018-06-08T03:17:52.916Z,27.67
2018-06-08T03:20:21.516Z,30.07
2018-06-08T03:22:50.348Z,22.77
2018-06-08T03:25:18.935Z,29.13
2018-06-08T03:27:47.452Z,28.83
2018-06-08T03:30:16.072Z,26.97
2018-06-08T03:32:44.604Z,24.93
2018-06-08T03:35:13.952Z,31.20
2018-06-08T03:37:42.464Z,29.50
2018-06-08T03:40:11.098Z,28.13
2018-06-08T03:42:39.643Z,32.93
2018-06-08T03:45:08.340Z,24.10
2018-06-08T03:47:36.905Z,31.43
2018-06-08T03:50:05.754Z,32.30
2018-06-08T03:52:34.246Z,26.03
2018-06-08T03:55:02.764Z,29.33
2018-06-08T03:57:31.618Z,29.07
2018-06-08T04:00:00.354Z,29.87
2018-06-08T04:02:28.885Z,30.40
2018-06-08T04:04:57.355Z,29.97
2018-06-08T04:07:25.805Z,29.13
2018-06-08T04:09:54.570Z,31.00
2018-06-08T04:12:23.197Z,29.50
2018-06-08T04:14:51.461Z,30.30
2018-06-08T04:17:19.951Z,27.20
2018-06-08T04:19:48.519Z,27.10
2018-06-08T04:22:17.346Z,22.90
2018-06-08T04:24:45.887Z,28.43
2018-06-08T04:27:14.424Z,24.70
2018-06-08T04:29:43.056Z,25.07
2018-06-08T04:32:11.402Z,26.63
2018-06-08T04:34:39.890Z,27.00
2018-06-08T04:37:08.555Z,25.60
2018-06-08T04:39:37.547Z,27.30
2018-06-08T04:42:06.541Z,24.20
2018-06-08T04:44:35.069Z,26.87
2018-06-08T04:47:03.777Z,25.47
2018-06-08T04:49:32.285Z,25.33
2018-06-08T04:52:00.945Z,24.33
2018-06-08T04:54:29.474Z,20.67
2018-06-08T04:56:58.308Z,19.93
2018-06-08T04:59:26.974Z,25.77
2018-06-08T05:01:55.492Z,25.47
2018-06-08T05:04:24.138Z,23.17
2018-06-08T05:06:52.761Z,25.37
2018-06-08T05:09:22.101Z,23.07
2018-06-08T05:11:50.716Z,23.23
2018-06-08T05:14:19.376Z,23.50
2018-06-08T05:16:47.878Z,25.43
2018-06-08T05:19:16.546Z,24.93
2018-06-08T05:21:45.444Z,23.27
2018-06-08T05:24:14.031Z,23.50
2018-06-08T05:26:42.850Z,25.63
2018-06-08T05:29:11.408Z,16.67
2018-06-08T05:31:40.009Z,25.83
2018-06-08T05:34:08.672Z,25.13
2018-06-08T05:36:37.325Z,28.20
2018-06-08T05:39:08.646Z,26.67
2018-06-08T05:41:37.526Z,24.60
2018-06-08T05:44:06.314Z,26.03
2018-06-08T05:46:35.112Z,23.07
2018-06-08T05:49:03.662Z,26.97
2018-06-08T05:51:32.140Z,26.30
2018-06-08T05:54:00.859Z,28.57
2018-06-08T05:56:29.520Z,21.90
2018-06-08T05:58:58.205Z,28.47
2018-06-08T06:01:26.864Z,26.93
2018-06-08T06:03:55.368Z,24.07
2018-06-08T06:06:23.822Z,27.70
2018-06-08T06:08:52.377Z,26.20
2018-06-08T06:11:21.740Z,24.73
2018-06-08T06:13:50.601Z,22.97
2018-06-08T06:16:19.113Z,30.00
2018-06-08T06:18:47.696Z,24.10
2018-06-08T06:21:16.198Z,24.27
2018-06-08T06:23:44.735Z,24.13
2018-06-08T06:26:13.359Z,25.10
2018-06-08T06:28:41.584Z,27.77
2018-06-08T06:31:10.207Z,22.93
2018-06-08T06:33:38.824Z,24.10
2018-06-08T06:36:07.315Z,23.50
2018-06-08T06:38:36.295Z,24.87
2018-06-08T06:41:04.876Z,23.30
2018-06-08T06:43:33.420Z,22.43
2018-06-08T06:46:02.302Z,20.67
2018-06-08T06:48:31.607Z,21.17
2018-06-08T06:51:00.191Z,21.87
2018-06-08T06:53:31.694Z,19.27
2018-06-08T06:56:00.578Z,23.40
2018-06-08T06:58:29.077Z,24.77
2018-06-08T07:00:57.625Z,25.90
2018-06-08T07:03:26.120Z,25.90
2018-06-08T07:05:55.251Z,27.10
2018-06-08T07:08:23.774Z,29.57
2018-06-08T07:10:52.275Z,28.17
2018-06-08T07:13:20.523Z,26.07
2018-06-08T07:15:49.548Z,26.27
2018-06-08T07:18:18.059Z,26.00
2018-06-08T07:20:46.602Z,27.00
2018-06-08T07:23:15.130Z,25.40
2018-06-08T07:25:43.816Z,27.13
2018-06-08T07:28:12.380Z,25.13
2018-06-08T07:30:40.898Z,23.07
2018-06-08T07:33:09.418Z,25.70
2018-06-08T07:35:37.956Z,22.47
2018-06-08T07:38:06.508Z,25.27
2018-06-08T07:40:35.060Z,23.37
2018-06-08T07:43:03.578Z,25.77
2018-06-08T07:45:32.297Z,24.80
2018-06-08T07:48:00.866Z,20.93
2018-06-08T07:50:29.233Z,19.70
2018-06-08T07:52:57.424Z,20.10
2018-06-08T07:55:25.993Z,18.13
2018-06-08T07:57:54.349Z,21.20
2018-06-08T08:00:22.861Z,20.73
2018-06-08T08:02:51.557Z,20.70
2018-06-08T08:05:20.103Z,20.50
2018-06-08T08:07:49.064Z,21.50
2018-06-08T08:10:17.712Z,19.20
2018-06-08T08:12:46.220Z,23.53
2018-06-08T08:15:15.367Z,22.50
2018-06-08T08:17:43.738Z,23.27
2018-06-08T08:20:12.522Z,22.23
2018-06-08T08:22:41.839Z,23.57
2018-06-08T08:25:10.392Z,22.57
2018-06-08T08:27:39.795Z,24.87
2018-06-08T08:30:08.520Z,18.13
2018-06-08T08:32:37.908Z,20.13
2018-06-08T08:35:08.520Z,23.63
2018-06-08T08:37:40.253Z,20.47
2018-06-08T08:40:09.431Z,21.70
2018-06-08T08:42:39.781Z,18.03
2018-06-08T08:45:08.900Z,20.73
2018-06-08T08:47:37.945Z,20.50
2018-06-08T08:50:07.386Z,19.10
2018-06-08T08:52:37.180Z,19.67
2018-06-08T08:55:07.671Z,17.70
2018-06-08T08:57:38.462Z,17.40
2018-06-08T09:00:08.080Z,18.53
2018-06-08T09:02:37.203Z,20.07
2018-06-08T09:05:07.291Z,20.50
2018-06-08T09:07:36.847Z,18.70
2018-06-08T09:10:05.858Z,17.27
2018-06-08T09:12:34.978Z,16.23
2018-06-08T09:15:04.551Z,18.33
2018-06-08T09:17:34.946Z,18.30
2018-06-08T09:20:05.004Z,17.30
2018-06-08T09:22:36.759Z,19.63
2018-06-08T09:25:05.414Z,16.13
2018-06-08T09:27:34.749Z,17.07
2018-06-08T09:30:05.453Z,17.70
2018-06-08T09:32:35.436Z,19.33
2018-06-08T09:35:06.018Z,19.80
2018-06-08T09:37:38.194Z,17.60
2018-06-08T09:40:07.746Z,18.87
2018-06-08T09:42:36.939Z,19.93
2018-06-08T09:45:07.483Z,19.77
2018-06-08T09:47:36.160Z,18.10
2018-06-08T09:50:05.049Z,18.57
2018-06-08T09:52:33.554Z,16.43
2018-06-08T09:55:02.750Z,14.67
2018-06-08T09:57:32.176Z,17.13
2018-06-08T10:00:02.124Z,19.60
2018-06-08T10:02:30.986Z,18.03
2018-06-08T10:05:00.749Z,18.93
2018-06-08T10:07:33.124Z,19.67
2018-06-08T10:10:02.897Z,19.33
2018-06-08T10:12:31.569Z,18.23
2018-06-08T10:15:00.929Z,17.77
2018-06-08T10:17:29.815Z,19.70
2018-06-08T10:19:58.562Z,19.83
2018-06-08T10:22:27.459Z,18.13
2018-06-08T10:24:56.083Z,16.90
2018-06-08T10:27:24.948Z,17.07
2018-06-08T10:29:53.477Z,15.87
2018-06-08T10:32:22.359Z,16.83
2018-06-08T10:34:51.271Z,16.17
2018-06-08T10:37:19.835Z,16.50
2018-06-08T10:39:48.375Z,17.03
2018-06-08T10:42:17.061Z,16.57
2018-06-08T10:44:45.998Z,17.13
2018-06-08T10:47:14.842Z,16.10
2018-06-08T10:49:43.605Z,15.17
2018-06-08T10:52:12.372Z,15.47
2018-06-08T10:54:41.052Z,16.40
2018-06-08T10:57:09.781Z,16.83
2018-06-08T10:59:38.468Z,17.77
2018-06-08T11:02:07.155Z,17.73
2018-06-08T11:04:35.922Z,15.10
2018-06-08T11:07:04.872Z,13.30
2018-06-08T11:09:33.552Z,14.93
2018-06-08T11:12:02.190Z,15.83
2018-06-08T11:14:31.146Z,15.03
2018-06-08T11:16:59.864Z,14.27
2018-06-08T11:19:28.366Z,13.67
2018-06-08T11:21:56.957Z,16.87
2018-06-08T11:24:25.486Z,16.10
2018-06-08T11:26:54.596Z,15.17
2018-06-08T11:29:24.212Z,15.13
2018-06-08T11:31:52.922Z,15.60
2018-06-08T11:34:21.553Z,15.77
2018-06-08T11:36:50.383Z,16.30
2018-06-08T11:39:19.013Z,12.37
2018-06-08T11:41:47.524Z,16.40
2018-06-08T11:44:16.085Z,15.77
2018-06-08T11:46:44.922Z,15.03
2018-06-08T11:49:13.496Z,18.20
2018-06-08T11:51:42.379Z,19.60
2018-06-08T11:54:11.028Z,18.63
2018-06-08T11:56:39.730Z,16.23
2018-06-08T11:59:08.444Z,17.77
2018-06-08T12:01:37.342Z,16.12
2018-06-08T12:04:05.954Z,17.00
2018-06-08T12:06:34.646Z,17.00
2018-06-08T12:09:03.295Z,16.20
2018-06-08T12:11:32.150Z,15.97
2018-06-08T12:14:00.988Z,16.27
2018-06-08T12:16:29.769Z,16.90
2018-06-08T12:18:58.080Z,17.27
2018-06-08T12:21:26.860Z,16.83
2018-06-08T12:23:55.387Z,15.80
2018-06-08T12:26:23.900Z,16.50
2018-06-08T12:28:52.568Z,16.67
2018-06-08T12:31:21.134Z,17.67
2018-06-08T12:33:49.623Z,15.83
2018-06-08T12:36:17.877Z,17.53
2018-06-08T12:38:46.888Z,15.07
2018-06-08T12:41:15.491Z,15.33
2018-06-08T12:43:44.128Z,16.73
2018-06-08T12:46:12.769Z,16.47
2018-06-08T12:48:41.440Z,18.37
2018-06-08T12:51:09.629Z,17.70
2018-06-08T12:53:38.161Z,18.10
2018-06-08T12:56:06.892Z,15.30
2018-06-08T12:58:35.645Z,16.90
2018-06-08T13:01:04.142Z,18.03
2018-06-08T13:03:32.760Z,17.60
2018-06-08T13:06:01.329Z,19.80
2018-06-08T13:08:30.010Z,16.97
2018-06-08T13:10:58.677Z,18.17
2018-06-08T13:13:27.233Z,16.03
2018-06-08T13:15:55.769Z,17.47
2018-06-08T13:18:24.925Z,14.87
2018-06-08T13:20:53.785Z,15.47
2018-06-08T13:23:22.396Z,15.70
2018-06-08T13:25:50.735Z,16.50
2018-06-08T13:28:19.223Z,16.37
2018-06-08T13:30:47.760Z,15.77
2018-06-08T13:33:16.739Z,14.57
2018-06-08T13:35:45.268Z,15.07
2018-06-08T13:38:13.928Z,16.70
2018-06-08T13:40:43.179Z,17.20
2018-06-08T13:43:12.016Z,15.77
2018-06-08T13:45:40.736Z,16.03
2018-06-08T13:48:09.357Z,17.27
2018-06-08T13:50:37.877Z,16.40
2018-06-08T13:53:06.694Z,17.53
2018-06-08T13:55:35.259Z,16.83
2018-06-08T13:58:04.090Z,15.27
2018-06-08T14:00:32.963Z,15.77
2018-06-08T14:03:01.149Z,16.40
2018-06-08T14:05:29.828Z,17.03
2018-06-08T14:07:58.351Z,14.63
2018-06-08T14:10:27.090Z,15.23
2018-06-08T14:12:55.621Z,15.20
2018-06-08T14:15:25.373Z,14.57
2018-06-08T14:17:54.413Z,18.67
2018-06-08T14:20:22.935Z,16.33
2018-06-08T14:22:51.493Z,16.23
2018-06-08T14:25:20.149Z,20.53
2018-06-08T14:27:49.032Z,19.33
2018-06-08T14:30:17.574Z,19.83
2018-06-08T14:32:46.119Z,18.63
2018-06-08T14:35:14.589Z,18.03
2018-06-08T14:37:43.057Z,18.80
2018-06-08T14:40:11.943Z,18.70
2018-06-08T14:42:40.712Z,17.30
2018-06-08T14:45:09.321Z,17.33
2018-06-08T14:47:38.059Z,19.20
2018-06-08T14:50:06.755Z,18.23
2018-06-08T14:52:35.247Z,17.23
2018-06-08T14:55:03.858Z,18.13
2018-06-08T14:57:32.550Z,18.13
2018-06-08T15:00:01.473Z,16.63
2018-06-08T15:02:30.135Z,17.17
2018-06-08T15:04:59.003Z,17.83
2018-06-08T15:07:27.611Z,21.10
2018-06-08T15:09:56.145Z,20.80
2018-06-08T15:12:25.035Z,21.83
2018-06-08T15:14:53.536Z,18.53
2018-06-08T15:17:22.067Z,20.13
2018-06-08T15:19:50.550Z,20.63
2018-06-08T15:22:18.903Z,19.40
2018-06-08T15:24:47.445Z,20.53
2018-06-08T15:27:15.993Z,19.83
2018-06-08T15:29:44.397Z,18.87
2018-06-08T15:32:12.983Z,18.73
2018-06-08T15:34:41.877Z,18.10
2018-06-08T15:37:10.383Z,16.57
2018-06-08T15:39:39.145Z,16.97
2018-06-08T15:42:08.124Z,15.13
2018-06-08T15:44:36.742Z,17.47
2018-06-08T15:47:05.305Z,16.83
2018-06-08T15:49:33.964Z,17.07
2018-06-08T15:52:02.511Z,16.93
2018-06-08T15:54:30.834Z,18.97
2018-06-08T15:56:59.341Z,18.80
2018-06-08T15:59:27.847Z,17.40
2018-06-08T16:01:56.537Z,18.30
2018-06-08T16:04:25.296Z,16.73
2018-06-08T16:06:53.902Z,17.50
2018-06-08T16:09:22.472Z,15.33
2018-06-08T16:11:51.136Z,17.23
2018-06-08T16:14:19.669Z,15.80
2018-06-08T16:16:48.522Z,15.37
2018-06-08T16:19:17.033Z,14.70
2018-06-08T16:21:45.548Z,14.60
2018-06-08T16:24:14.062Z,14.13
2018-06-08T16:26:42.564Z,13.73
2018-06-08T16:29:10.899Z,14.73
2018-06-08T16:31:39.519Z,15.57
2018-06-08T16:34:08.064Z,14.37
2018-06-08T16:36:36.716Z,15.27
2018-06-08T16:39:07.601Z,14.30
2018-06-08T16:41:36.592Z,14.10
2018-06-08T16:44:05.107Z,13.70
2018-06-08T16:46:33.805Z,13.63
2018-06-08T16:49:02.926Z,13.10
2018-06-08T16:51:31.560Z,13.43
2018-06-08T16:53:59.796Z,14.20
2018-06-08T16:56:28.512Z,13.30
2018-06-08T16:58:57.065Z,13.17
2018-06-08T17:01:26.110Z,12.30
2018-06-08T17:03:55.083Z,11.83
2018-06-08T17:06:23.726Z,11.90
2018-06-08T17:08:52.888Z,10.93
2018-06-08T17:11:21.518Z,12.17
2018-06-08T17:13:50.154Z,11.40
2018-06-08T17:16:18.654Z,12.50
2018-06-08T17:18:47.741Z,11.67
2018-06-08T17:21:16.499Z,11.73
2018-06-08T17:23:45.171Z,10.80
2018-06-08T17:26:13.732Z,12.17
2018-06-08T17:28:42.354Z,11.50
2018-06-08T17:31:11.272Z,11.47
2018-06-08T17:33:40.049Z,10.47
2018-06-08T17:36:08.838Z,11.60
2018-06-08T17:38:37.534Z,10.80
2018-06-08T17:41:06.409Z,11.60
2018-06-08T17:43:35.391Z,11.47
2018-06-08T17:46:04.488Z,11.40
2018-06-08T17:48:33.137Z,11.23
2018-06-08T17:51:01.496Z,10.50
2018-06-08T17:53:30.223Z,11.33
2018-06-08T17:55:58.998Z,11.53
2018-06-08T17:58:27.571Z,11.67
2018-06-08T18:00:56.120Z,11.97
2018-06-08T18:03:24.965Z,10.53
2018-06-08T18:05:53.493Z,11.10
2018-06-08T18:08:22.067Z,10.10
2018-06-08T18:10:50.764Z,9.33
2018-06-08T18:13:19.374Z,8.13
2018-06-08T18:15:47.832Z,9.00
2018-06-08T18:18:16.366Z,9.67
2018-06-08T18:20:44.942Z,8.03
2018-06-08T18:23:14.021Z,8.30
2018-06-08T18:25:42.538Z,8.30
2018-06-08T18:28:11.268Z,8.20
2018-06-08T18:30:40.044Z,8.80
2018-06-08T18:33:08.877Z,8.17
2018-06-08T18:35:37.696Z,9.10
2018-06-08T18:38:06.544Z,7.90
2018-06-08T18:40:35.292Z,8.70
2018-06-08T18:43:03.840Z,8.07
2018-06-08T18:45:32.394Z,8.67
2018-06-08T18:48:00.882Z,7.93
2018-06-08T18:50:29.676Z,9.67
2018-06-08T18:52:58.644Z,9.37
2018-06-08T18:55:27.205Z,8.80
2018-06-08T18:57:56.150Z,8.90
2018-06-08T19:00:24.974Z,9.27
2018-06-08T19:02:53.625Z,8.60
2018-06-08T19:05:22.162Z,9.23
2018-06-08T19:07:50.735Z,7.87
2018-06-08T19:10:19.294Z,9.33
2018-06-08T19:12:47.800Z,9.00
2018-06-08T19:15:16.577Z,8.53
2018-06-08T19:17:45.653Z,9.13
2018-06-08T19:20:14.123Z,7.87
2018-06-08T19:22:43.601Z,8.77
2018-06-08T19:25:12.187Z,8.00
2018-06-08T19:27:40.915Z,6.30
2018-06-08T19:30:09.553Z,8.30
2018-06-08T19:32:38.079Z,8.77
2018-06-08T19:35:06.766Z,8.40
2018-06-08T19:37:35.232Z,9.43
2018-06-08T19:40:04.035Z,9.37
2018-06-08T19:42:32.546Z,9.50
2018-06-08T19:45:01.059Z,9.07
2018-06-08T19:47:29.702Z,9.17
2018-06-08T19:49:58.220Z,9.07
2018-06-08T19:52:27.078Z,8.83
2018-06-08T19:54:55.599Z,10.10
2018-06-08T19:57:24.137Z,10.50
2018-06-08T19:59:52.839Z,9.00
2018-06-08T20:02:21.367Z,9.10
2018-06-08T20:04:49.984Z,9.00
2018-06-08T20:07:18.516Z,9.47
2018-06-08T20:09:47.018Z,11.20
2018-06-08T20:12:17.726Z,9.97
2018-06-08T20:14:46.288Z,10.13
2018-06-08T20:17:15.100Z,10.03
2018-06-08T20:19:44.523Z,11.23
2018-06-08T20:22:13.162Z,11.30
2018-06-08T20:24:41.792Z,12.03
2018-06-08T20:27:09.962Z,10.67
2018-06-08T20:29:38.578Z,10.37
2018-06-08T20:32:07.154Z,10.27
2018-06-08T20:34:35.992Z,11.67
2018-06-08T20:37:04.524Z,11.10
2018-06-08T20:39:33.052Z,10.90
2018-06-08T20:42:01.504Z,12.13
2018-06-08T20:44:30.100Z,9.70
2018-06-08T20:46:58.779Z,10.33
2018-06-08T20:49:27.513Z,11.00
2018-06-08T20:51:56.234Z,11.50
2018-06-08T20:54:25.413Z,10.80
2018-06-08T20:57:05.049Z,11.10
2018-06-08T20:59:33.681Z,10.93
2018-06-08T21:02:02.594Z,9.80
2018-06-08T21:04:31.544Z,9.60
2018-06-08T21:07:00.513Z,11.67
2018-06-08T21:09:29.089Z,13.20
2018-06-08T21:11:57.873Z,11.57
2018-06-08T21:14:26.917Z,11.50
2018-06-08T21:16:55.738Z,11.93
2018-06-08T21:19:24.291Z,10.43
2018-06-08T21:21:52.860Z,10.70
2018-06-08T21:24:21.162Z,12.43
2018-06-08T21:26:49.766Z,10.53
2018-06-08T21:29:18.557Z,11.17
2018-06-08T21:31:47.151Z,13.27
2018-06-08T21:34:16.271Z,10.27
2018-06-08T21:36:45.035Z,12.40
2018-06-08T21:39:13.553Z,12.30
2018-06-08T21:41:42.095Z,11.63
2018-06-08T21:44:10.771Z,13.20
2018-06-08T21:46:39.784Z,14.73
2018-06-08T21:49:08.446Z,13.30
2018-06-08T21:51:37.050Z,12.57
2018-06-08T21:54:05.974Z,14.13
2018-06-08T21:56:35.584Z,14.47
2018-06-08T21:59:04.192Z,12.80
2018-06-08T22:01:33.001Z,14.10
2018-06-08T22:04:01.646Z,12.63
2018-06-08T22:06:30.840Z,12.70
2018-06-08T22:08:59.539Z,13.23
2018-06-08T22:11:28.148Z,14.80
2018-06-08T22:13:56.736Z,13.57
2018-06-08T22:16:25.288Z,13.37
2018-06-08T22:18:53.792Z,13.17
2018-06-08T22:21:22.378Z,14.00
2018-06-08T22:23:50.962Z,15.07
2018-06-08T22:26:19.476Z,13.53
2018-06-08T22:28:48.027Z,14.43
2018-06-08T22:31:16.758Z,15.07
2018-06-08T22:33:45.680Z,14.67
2018-06-08T22:36:14.330Z,13.63
2018-06-08T22:38:42.533Z,14.97
2018-06-08T22:41:11.133Z,13.77
2018-06-08T22:43:39.657Z,16.53
2018-06-08T22:46:08.495Z,15.73
2018-06-08T22:48:37.288Z,16.13
2018-06-08T22:51:05.864Z,14.70
2018-06-08T22:53:34.657Z,15.13
2018-06-08T22:56:03.187Z,15.90
2018-06-08T22:58:31.901Z,15.63
2018-06-08T23:01:00.439Z,17.70
2018-06-08T23:03:29.005Z,18.67
2018-06-08T23:05:57.691Z,17.47
2018-06-08T23:08:26.861Z,19.60
2018-06-08T23:10:56.667Z,15.60
2018-06-08T23:13:26.379Z,19.47
2018-06-08T23:15:56.183Z,20.40
2018-06-08T23:18:25.388Z,18.03
2018-06-08T23:20:54.013Z,16.90
2018-06-08T23:23:22.579Z,15.40
2018-06-08T23:25:51.097Z,18.20
2018-06-08T23:28:19.642Z,15.03
2018-06-08T23:30:48.805Z,16.83
2018-06-08T23:33:17.372Z,18.23
2018-06-08T23:35:45.956Z,16.73
2018-06-08T23:38:14.596Z,16.90
2018-06-08T23:40:43.549Z,18.03
2018-06-08T23:43:12.530Z,16.93
2018-06-08T23:45:41.342Z,16.10
2018-06-08T23:48:10.783Z,16.97
2018-06-08T23:50:39.578Z,15.70
2018-06-08T23:53:08.348Z,16.43
2018-06-08T23:55:36.850Z,15.80
2018-06-08T23:58:05.468Z,18.27
